Terminal Aerodrome Forecast
Issued by NWS Charleston, WV

Current Version | Previous Version | Graphics & Text | Print | Product List | Glossary On
Versions: 1 2 3 4 5 6 7 8 9 10 11 12 13 14 15 16 17 18 19 20 21 22 23 24 25 26 27 28 29
000
FTUS41 KRLX 250500 RRA
TAFCRW
TAF
KCRW 250546Z 2506/2606 23005KT 6SM BR BKN050
     FM251500 19007KT P6SM BKN250
     FM260200 00000KT 6SM -RA BKN050
     FM260400 VRB03KT 4SM -RA BR OVC015=

USA.gov is the U.S. government's official web portal to all federal, state and local government web resources and services.